BAW17PA EGKK-TAPA
Flight info
| Callsign | BAW17PA |
|---|---|
| Flight time | N/A |
| Altitude | 36000 |
| Route | NOVMA1X NOVMA L620 SAM N19 ADKIK DCT JOZMA DCT GAPLI/M082F360 DCT SOMAX DCT 4930N02000W 47N030W 45N035W 42N040W/M082F380 32N050W/M082F400 27N055W 20N060W DCT AMTTO DCT ANU DCT |
| Aircraft | B772/H-SDE1E3FGHIJ3J5J6M1M2P2RWXYZ/LB1D1 |
Departure
| Time | 2026-04-16 07:47 |
|---|---|
| Airport | London Gatwick Airport (EGKK) |
Arrival
| Time | N/A |
|---|---|
| Airport | V. C. Bird International Airport (TAPA) |
| Time | Latitude | Longitude | Altitude | Speed | Heading |
|---|---|---|---|---|---|
| 2026-04-16 07:31 | 51.15602 | -0.16783 | 209 ft | 0 kts | 168° |
| 2026-04-16 07:41 | 51.15612 | -0.16786 | 209 ft | 3 kts | 168° |
| 2026-04-16 07:41 | 51.15631 | -0.16793 | 209 ft | 3 kts | 169° |
| 2026-04-16 07:41 | 51.15651 | -0.16797 | 219 ft | 3 kts | 179° |
| 2026-04-16 07:42 | 51.15668 | -0.16795 | 209 ft | 3 kts | 204° |
| 2026-04-16 07:42 | 51.15678 | -0.16788 | 209 ft | 3 kts | 245° |
| 2026-04-16 07:42 | 51.15681 | -0.16775 | 209 ft | 2 kts | 257° |
| 2026-04-16 07:42 | 51.15684 | -0.16757 | 209 ft | 0 kts | 257° |
| 2026-04-16 07:43 | 51.15684 | -0.16756 | 209 ft | 0 kts | 257° |
| 2026-04-16 07:44 | 51.15673 | -0.16831 | 209 ft | 20 kts | 257° |
| 2026-04-16 07:45 | 51.15635 | -0.17108 | 211 ft | 27 kts | 257° |
| 2026-04-16 07:45 | 51.15588 | -0.17305 | 216 ft | 7 kts | 207° |
| 2026-04-16 07:45 | 51.15476 | -0.17291 | 209 ft | 20 kts | 168° |
| 2026-04-16 07:45 | 51.15342 | -0.17247 | 219 ft | 20 kts | 168° |
| 2026-04-16 07:46 | 51.15211 | -0.17178 | 210 ft | 20 kts | 167° |
| 2026-04-16 07:46 | 51.15092 | -0.17161 | 212 ft | 11 kts | 203° |
| 2026-04-16 07:46 | 51.15050 | -0.17344 | 213 ft | 43 kts | 257° |
| 2026-04-16 07:46 | 51.14930 | -0.18197 | 218 ft | 114 kts | 257° |
| 2026-04-16 07:47 | 51.14720 | -0.19737 | 227 ft | 171 kts | 258° |
| 2026-04-16 07:47 | 51.14458 | -0.21664 | 758 ft | 180 kts | 256° |
| 2026-04-16 07:47 | 51.14178 | -0.23651 | 1499 ft | 188 kts | 256° |
| 2026-04-16 07:47 | 51.13875 | -0.25810 | 1737 ft | 211 kts | 256° |
| 2026-04-16 07:48 | 51.13542 | -0.28206 | 1959 ft | 232 kts | 256° |
| 2026-04-16 07:48 | 51.13188 | -0.30780 | 2443 ft | 239 kts | 255° |
| 2026-04-16 07:48 | 51.12828 | -0.33390 | 3003 ft | 248 kts | 255° |
| 2026-04-16 07:48 | 51.12440 | -0.36187 | 3236 ft | 269 kts | 254° |
| 2026-04-16 07:49 | 51.12017 | -0.39217 | 3398 ft | 290 kts | 255° |
| 2026-04-16 07:49 | 51.11560 | -0.42413 | 3800 ft | 300 kts | 253° |
| 2026-04-16 07:49 | 51.10838 | -0.45546 | 4212 ft | 305 kts | 243° |
| 2026-04-16 07:49 | 51.09859 | -0.48568 | 4880 ft | 308 kts | 241° |
| 2026-04-16 07:50 | 51.08852 | -0.51585 | 5622 ft | 309 kts | 242° |
| 2026-04-16 07:50 | 51.07861 | -0.54653 | 6306 ft | 313 kts | 243° |
| 2026-04-16 07:50 | 51.06882 | -0.57749 | 7029 ft | 314 kts | 243° |
| 2026-04-16 07:50 | 51.05896 | -0.60889 | 7677 ft | 319 kts | 243° |
| 2026-04-16 07:51 | 51.05059 | -0.64173 | 8201 ft | 324 kts | 253° |
| 2026-04-16 07:51 | 51.04588 | -0.67701 | 8785 ft | 329 kts | 258° |
| 2026-04-16 07:51 | 51.04177 | -0.71306 | 9520 ft | 331 kts | 257° |
| 2026-04-16 07:51 | 51.03705 | -0.75176 | 10270 ft | 334 kts | 257° |
| 2026-04-16 07:52 | 51.03274 | -0.78544 | 10924 ft | 336 kts | 256° |
| 2026-04-16 07:52 | 51.02789 | -0.82182 | 11706 ft | 337 kts | 256° |
| 2026-04-16 07:52 | 51.02296 | -0.85833 | 12501 ft | 339 kts | 256° |
| 2026-04-16 07:52 | 51.01798 | -0.89509 | 13284 ft | 341 kts | 256° |
| 2026-04-16 07:53 | 51.01288 | -0.93200 | 13979 ft | 345 kts | 255° |
| 2026-04-16 07:53 | 51.00733 | -0.96936 | 14662 ft | 348 kts | 255° |
| 2026-04-16 07:53 | 51.00176 | -1.00698 | 15326 ft | 351 kts | 256° |
| 2026-04-16 07:53 | 50.99646 | -1.04505 | 15988 ft | 355 kts | 256° |
| 2026-04-16 07:54 | 50.99121 | -1.08348 | 16591 ft | 358 kts | 256° |
| 2026-04-16 07:54 | 50.98588 | -1.12239 | 17182 ft | 362 kts | 256° |
| 2026-04-16 07:54 | 50.98051 | -1.16147 | 17786 ft | 364 kts | 256° |
| 2026-04-16 07:54 | 50.97506 | -1.20099 | 18350 ft | 366 kts | 256° |
| 2026-04-16 07:55 | 50.96956 | -1.24063 | 18888 ft | 369 kts | 256° |
| 2026-04-16 07:55 | 50.96402 | -1.28052 | 19413 ft | 372 kts | 256° |
| 2026-04-16 07:55 | 50.95839 | -1.32067 | 19933 ft | 374 kts | 256° |
| 2026-04-16 07:55 | 50.95285 | -1.36063 | 20414 ft | 377 kts | 257° |
| 2026-04-16 07:56 | 50.94753 | -1.40152 | 20877 ft | 380 kts | 257° |
| 2026-04-16 07:56 | 50.94232 | -1.44281 | 21343 ft | 382 kts | 257° |
| 2026-04-16 07:56 | 50.93711 | -1.48431 | 21825 ft | 384 kts | 257° |
| 2026-04-16 07:56 | 50.93184 | -1.52604 | 22290 ft | 386 kts | 257° |
| 2026-04-16 07:57 | 50.92652 | -1.56788 | 22726 ft | 388 kts | 257° |
| 2026-04-16 07:57 | 50.92112 | -1.61001 | 23143 ft | 391 kts | 258° |
| 2026-04-16 07:57 | 50.91566 | -1.65235 | 23552 ft | 393 kts | 257° |
| 2026-04-16 07:57 | 50.91015 | -1.69501 | 23972 ft | 395 kts | 258° |
| 2026-04-16 07:58 | 50.90467 | -1.73723 | 24383 ft | 397 kts | 258° |
| 2026-04-16 07:58 | 50.89908 | -1.78016 | 24764 ft | 399 kts | 258° |
| 2026-04-16 07:58 | 50.89344 | -1.82335 | 25136 ft | 402 kts | 258° |
| 2026-04-16 07:58 | 50.88774 | -1.86688 | 25526 ft | 403 kts | 258° |
| 2026-04-16 07:59 | 50.88202 | -1.91043 | 25883 ft | 405 kts | 258° |
| 2026-04-16 07:59 | 50.87625 | -1.95426 | 26237 ft | 408 kts | 258° |
| 2026-04-16 07:59 | 50.87042 | -1.99839 | 26584 ft | 410 kts | 258° |
| 2026-04-16 07:59 | 50.86456 | -2.04263 | 26964 ft | 411 kts | 258° |
| 2026-04-16 08:00 | 50.85870 | -2.08692 | 27324 ft | 412 kts | 258° |
| 2026-04-16 08:00 | 50.85280 | -2.13142 | 27668 ft | 413 kts | 258° |
| 2026-04-16 08:00 | 50.84685 | -2.17609 | 27966 ft | 416 kts | 258° |
| 2026-04-16 08:00 | 50.84087 | -2.22103 | 28237 ft | 418 kts | 258° |
| 2026-04-16 08:01 | 50.83483 | -2.26619 | 28513 ft | 420 kts | 258° |
| 2026-04-16 08:01 | 50.82876 | -2.31144 | 28821 ft | 421 kts | 258° |
| 2026-04-16 08:01 | 50.82264 | -2.35688 | 29100 ft | 422 kts | 258° |
| 2026-04-16 08:01 | 50.81650 | -2.40239 | 29347 ft | 424 kts | 258° |
| 2026-04-16 08:02 | 50.81032 | -2.44808 | 29587 ft | 426 kts | 258° |
| 2026-04-16 08:02 | 50.79784 | -2.53985 | 30053 ft | 428 kts | 258° |
| 2026-04-16 08:02 | 50.79186 | -2.58593 | 30266 ft | 429 kts | 259° |
| 2026-04-16 08:03 | 50.78638 | -2.63231 | 30547 ft | 428 kts | 259° |
| 2026-04-16 08:03 | 50.78115 | -2.67848 | 30874 ft | 426 kts | 260° |
| 2026-04-16 08:03 | 50.77594 | -2.72458 | 31208 ft | 425 kts | 260° |
| 2026-04-16 08:03 | 50.77247 | -2.75506 | 31397 ft | 424 kts | 260° |
| 2026-04-16 08:04 | 50.76719 | -2.80091 | 31711 ft | 422 kts | 260° |
| 2026-04-16 08:04 | 50.76014 | -2.86127 | 32127 ft | 420 kts | 260° |
| 2026-04-16 08:04 | 50.75653 | -2.89190 | 32324 ft | 419 kts | 260° |
| 2026-04-16 08:04 | 50.75118 | -2.93709 | 32595 ft | 419 kts | 260° |
| 2026-04-16 08:05 | 50.74405 | -2.99691 | 33020 ft | 416 kts | 260° |
| 2026-04-16 08:05 | 50.74043 | -3.02715 | 33232 ft | 415 kts | 260° |
| 2026-04-16 08:05 | 50.73507 | -3.07188 | 33540 ft | 414 kts | 260° |
| 2026-04-16 08:05 | 50.72969 | -3.11651 | 33769 ft | 413 kts | 260° |
| 2026-04-16 08:06 | 50.72432 | -3.16099 | 34036 ft | 412 kts | 260° |
| 2026-04-16 08:06 | 50.71895 | -3.20535 | 34313 ft | 410 kts | 260° |
| 2026-04-16 08:06 | 50.71356 | -3.24968 | 34466 ft | 412 kts | 260° |
| 2026-04-16 08:06 | 50.70815 | -3.29410 | 34655 ft | 412 kts | 260° |
| 2026-04-16 08:07 | 50.70278 | -3.33802 | 34864 ft | 412 kts | 260° |
| 2026-04-16 08:07 | 50.69726 | -3.38300 | 35041 ft | 413 kts | 260° |
| 2026-04-16 08:07 | 50.69187 | -3.42694 | 35242 ft | 413 kts | 260° |
| 2026-04-16 08:07 | 50.68638 | -3.47140 | 35444 ft | 413 kts | 259° |
| 2026-04-16 08:08 | 50.68085 | -3.51590 | 35604 ft | 414 kts | 259° |
| 2026-04-16 08:08 | 50.67529 | -3.56054 | 35803 ft | 414 kts | 259° |
| 2026-04-16 08:08 | 50.66972 | -3.60514 | 35984 ft | 414 kts | 259° |
| 2026-04-16 08:08 | 50.66413 | -3.64985 | 36049 ft | 416 kts | 259° |
| 2026-04-16 08:09 | 50.65284 | -3.73965 | 36117 ft | 418 kts | 259° |
| 2026-04-16 08:09 | 50.64146 | -3.82949 | 36116 ft | 416 kts | 259° |
| 2026-04-16 08:10 | 50.63017 | -3.91822 | 36129 ft | 411 kts | 259° |
| 2026-04-16 08:10 | 50.61870 | -4.00556 | 36123 ft | 408 kts | 259° |
| 2026-04-16 08:11 | 50.60671 | -4.09278 | 36128 ft | 407 kts | 259° |
| 2026-04-16 08:11 | 50.59466 | -4.17999 | 36122 ft | 407 kts | 259° |
| 2026-04-16 08:12 | 50.58260 | -4.26728 | 36130 ft | 408 kts | 259° |
| 2026-04-16 08:12 | 50.57054 | -4.35423 | 36129 ft | 409 kts | 259° |
| 2026-04-16 08:13 | 50.55831 | -4.44190 | 36134 ft | 411 kts | 258° |
| 2026-04-16 08:13 | 50.54598 | -4.52980 | 36138 ft | 411 kts | 258° |
| 2026-04-16 08:14 | 50.53354 | -4.61777 | 36134 ft | 413 kts | 258° |
| 2026-04-16 08:14 | 50.52102 | -4.70586 | 36134 ft | 413 kts | 258° |
| 2026-04-16 08:15 | 50.50844 | -4.79391 | 36124 ft | 413 kts | 258° |
| 2026-04-16 08:15 | 50.49579 | -4.88193 | 36131 ft | 413 kts | 258° |
| 2026-04-16 08:16 | 50.48309 | -4.96992 | 36130 ft | 412 kts | 258° |
| 2026-04-16 08:16 | 50.47041 | -5.05708 | 36132 ft | 412 kts | 258° |
| 2026-04-16 08:17 | 50.45760 | -5.14463 | 36130 ft | 411 kts | 258° |
| 2026-04-16 08:17 | 50.44476 | -5.23191 | 36134 ft | 410 kts | 258° |
| 2026-04-16 08:19 | 50.39310 | -5.57872 | 36112 ft | 406 kts | 258° |
| 2026-04-16 08:20 | 50.38010 | -5.66467 | 36111 ft | 404 kts | 258° |
| 2026-04-16 08:20 | 50.36710 | -5.75022 | 36110 ft | 403 kts | 258° |
| 2026-04-16 08:21 | 50.35406 | -5.83555 | 36107 ft | 402 kts | 258° |
| 2026-04-16 08:21 | 50.34099 | -5.92068 | 36112 ft | 402 kts | 258° |
| 2026-04-16 08:22 | 50.32785 | -6.00580 | 36106 ft | 402 kts | 258° |
| 2026-04-16 08:22 | 50.31472 | -6.09044 | 36102 ft | 402 kts | 258° |
| 2026-04-16 08:23 | 50.30146 | -6.17546 | 36100 ft | 402 kts | 258° |
| 2026-04-16 08:23 | 50.28813 | -6.26053 | 36102 ft | 402 kts | 258° |
| 2026-04-16 08:24 | 50.27476 | -6.34531 | 36101 ft | 401 kts | 257° |
| 2026-04-16 08:24 | 50.26134 | -6.43002 | 36099 ft | 402 kts | 257° |
| 2026-04-16 08:25 | 50.24780 | -6.51496 | 36104 ft | 403 kts | 257° |
| 2026-04-16 08:25 | 50.23416 | -6.60007 | 36099 ft | 403 kts | 257° |
| 2026-04-16 08:26 | 50.22056 | -6.68452 | 36103 ft | 404 kts | 257° |
| 2026-04-16 08:26 | 50.20680 | -6.76975 | 36102 ft | 405 kts | 257° |
| 2026-04-16 08:27 | 50.19296 | -6.85494 | 36102 ft | 405 kts | 257° |
| 2026-04-16 08:27 | 50.17904 | -6.94024 | 36100 ft | 405 kts | 257° |
| 2026-04-16 08:28 | 50.16502 | -7.02550 | 36102 ft | 405 kts | 257° |
| 2026-04-16 08:28 | 50.15095 | -7.11073 | 36101 ft | 405 kts | 256° |
| 2026-04-16 08:29 | 50.13692 | -7.19536 | 36091 ft | 405 kts | 256° |
| 2026-04-16 08:29 | 50.12277 | -7.28026 | 36083 ft | 405 kts | 256° |
| 2026-04-16 08:30 | 50.10855 | -7.36514 | 36083 ft | 404 kts | 256° |
| 2026-04-16 08:30 | 50.09431 | -7.44965 | 36091 ft | 403 kts | 256° |
| 2026-04-16 08:31 | 50.08006 | -7.53394 | 36092 ft | 402 kts | 256° |
| 2026-04-16 08:31 | 50.06578 | -7.61805 | 36094 ft | 401 kts | 256° |
| 2026-04-16 08:32 | 50.05144 | -7.70197 | 36087 ft | 401 kts | 256° |
| 2026-04-16 08:32 | 50.03710 | -7.78562 | 36082 ft | 400 kts | 256° |
| 2026-04-16 08:33 | 50.02270 | -7.86910 | 36083 ft | 399 kts | 256° |
| 2026-04-16 08:33 | 50.00898 | -7.95257 | 36082 ft | 398 kts | 260° |
| 2026-04-16 08:34 | 50.00272 | -8.03789 | 36085 ft | 398 kts | 265° |
| 2026-04-16 08:34 | 50.00302 | -8.12344 | 36081 ft | 398 kts | 270° |
| 2026-04-16 08:35 | 50.00566 | -8.20968 | 36064 ft | 399 kts | 271° |
| 2026-04-16 08:35 | 50.00828 | -8.29590 | 36053 ft | 400 kts | 271° |
| 2026-04-16 08:36 | 50.01072 | -8.38225 | 36053 ft | 400 kts | 270° |
| 2026-04-16 08:36 | 50.01306 | -8.46859 | 36065 ft | 400 kts | 270° |
| 2026-04-16 08:37 | 50.01529 | -8.55507 | 36053 ft | 400 kts | 270° |
| 2026-04-16 08:37 | 50.01744 | -8.64166 | 36045 ft | 401 kts | 270° |
| 2026-04-16 08:38 | 50.01953 | -8.72816 | 36039 ft | 402 kts | 270° |
| 2026-04-16 08:38 | 50.02156 | -8.81521 | 36041 ft | 402 kts | 270° |
| 2026-04-16 08:39 | 50.02354 | -8.90223 | 36033 ft | 403 kts | 270° |
| 2026-04-16 08:39 | 50.02546 | -8.98941 | 36025 ft | 404 kts | 270° |
| 2026-04-16 08:40 | 50.02730 | -9.07671 | 36027 ft | 404 kts | 270° |
| 2026-04-16 08:40 | 50.02910 | -9.16415 | 36027 ft | 405 kts | 270° |
| 2026-04-16 08:41 | 50.03083 | -9.25165 | 36020 ft | 405 kts | 270° |
| 2026-04-16 08:41 | 50.03247 | -9.33910 | 36018 ft | 404 kts | 269° |
| 2026-04-16 08:42 | 50.03407 | -9.42637 | 36018 ft | 403 kts | 269° |
| 2026-04-16 08:42 | 50.03559 | -9.51351 | 36017 ft | 403 kts | 269° |
| 2026-04-16 08:43 | 50.03704 | -9.60001 | 36023 ft | 401 kts | 269° |
| 2026-04-16 08:43 | 50.03843 | -9.68698 | 36030 ft | 401 kts | 269° |
| 2026-04-16 08:44 | 50.03976 | -9.77381 | 36027 ft | 400 kts | 269° |
| 2026-04-16 08:44 | 50.04100 | -9.85973 | 36029 ft | 400 kts | 269° |
| 2026-04-16 08:45 | 50.04217 | -9.94620 | 36026 ft | 399 kts | 269° |
| 2026-04-16 08:45 | 50.04332 | -10.03246 | 36022 ft | 398 kts | 269° |
| 2026-04-16 08:46 | 50.04419 | -10.10416 | 36017 ft | 398 kts | 269° |
| 2026-04-16 08:46 | 50.04521 | -10.19028 | 36019 ft | 397 kts | 269° |
| 2026-04-16 08:47 | 50.04614 | -10.27633 | 36018 ft | 397 kts | 269° |
| 2026-04-16 08:47 | 50.04701 | -10.36196 | 36017 ft | 398 kts | 269° |
| 2026-04-16 08:48 | 50.04782 | -10.44821 | 36019 ft | 399 kts | 269° |
| 2026-04-16 08:48 | 50.04858 | -10.53463 | 36010 ft | 400 kts | 268° |
| 2026-04-16 08:49 | 50.04926 | -10.62147 | 36009 ft | 401 kts | 268° |
| 2026-04-16 08:49 | 50.04989 | -10.70829 | 36008 ft | 402 kts | 268° |
| 2026-04-16 08:50 | 50.05045 | -10.79543 | 36016 ft | 403 kts | 268° |
| 2026-04-16 08:50 | 50.05093 | -10.88269 | 36010 ft | 403 kts | 268° |
| 2026-04-16 08:51 | 50.05134 | -10.97009 | 36012 ft | 404 kts | 268° |
| 2026-04-16 08:51 | 50.05171 | -11.05748 | 36009 ft | 404 kts | 268° |
| 2026-04-16 08:52 | 50.05202 | -11.14502 | 36008 ft | 404 kts | 268° |
| 2026-04-16 08:52 | 50.05227 | -11.23192 | 36001 ft | 404 kts | 268° |
| 2026-04-16 08:53 | 50.05243 | -11.31935 | 35998 ft | 404 kts | 268° |
| 2026-04-16 08:53 | 50.05254 | -11.40681 | 36002 ft | 404 kts | 268° |
| 2026-04-16 08:54 | 50.05259 | -11.49425 | 35997 ft | 403 kts | 268° |
| 2026-04-16 08:54 | 50.05255 | -11.58179 | 35999 ft | 402 kts | 268° |
| 2026-04-16 08:55 | 50.05245 | -11.66828 | 35999 ft | 402 kts | 268° |
| 2026-04-16 08:55 | 50.05231 | -11.75537 | 36005 ft | 402 kts | 268° |
| 2026-04-16 08:56 | 50.05208 | -11.84226 | 36005 ft | 401 kts | 268° |
| 2026-04-16 08:56 | 50.05180 | -11.92909 | 35996 ft | 401 kts | 267° |
| 2026-04-16 08:57 | 50.05145 | -12.01599 | 35976 ft | 401 kts | 267° |
| 2026-04-16 08:57 | 50.05105 | -12.10228 | 35972 ft | 401 kts | 267° |
| 2026-04-16 08:58 | 50.05056 | -12.18911 | 35971 ft | 401 kts | 267° |
| 2026-04-16 08:58 | 50.05002 | -12.27587 | 35971 ft | 400 kts | 267° |
| 2026-04-16 08:59 | 50.04940 | -12.36258 | 35972 ft | 400 kts | 267° |
| 2026-04-16 08:59 | 50.04873 | -12.44875 | 35972 ft | 400 kts | 267° |
| 2026-04-16 09:00 | 50.04798 | -12.53549 | 35972 ft | 401 kts | 267° |
| 2026-04-16 09:00 | 50.04719 | -12.62221 | 35972 ft | 401 kts | 267° |
| 2026-04-16 09:01 | 50.04586 | -12.75255 | 35971 ft | 402 kts | 266° |
| 2026-04-16 09:02 | 50.04491 | -12.83954 | 35970 ft | 403 kts | 266° |
| 2026-04-16 09:02 | 50.04386 | -12.92680 | 35975 ft | 403 kts | 266° |
| 2026-04-16 09:03 | 50.04276 | -13.01407 | 35972 ft | 403 kts | 266° |
| 2026-04-16 09:03 | 50.04159 | -13.10130 | 35972 ft | 403 kts | 266° |
| 2026-04-16 09:04 | 50.04035 | -13.18849 | 35973 ft | 403 kts | 266° |
| 2026-04-16 09:04 | 50.03907 | -13.27573 | 35974 ft | 403 kts | 266° |
| 2026-04-16 09:05 | 50.03772 | -13.36242 | 35972 ft | 403 kts | 266° |
| 2026-04-16 09:05 | 50.03628 | -13.44944 | 35974 ft | 402 kts | 266° |
| 2026-04-16 09:06 | 50.03480 | -13.53639 | 35969 ft | 402 kts | 266° |
| 2026-04-16 09:06 | 50.03327 | -13.62328 | 35982 ft | 401 kts | 266° |
| 2026-04-16 09:07 | 50.03163 | -13.70998 | 35980 ft | 400 kts | 265° |
| 2026-04-16 09:07 | 50.02995 | -13.79649 | 35983 ft | 400 kts | 265° |
| 2026-04-16 09:08 | 50.02820 | -13.88300 | 35981 ft | 399 kts | 265° |
| 2026-04-16 09:08 | 50.02643 | -13.96868 | 35981 ft | 399 kts | 265° |
| 2026-04-16 09:09 | 50.02457 | -14.05535 | 35982 ft | 398 kts | 265° |
| 2026-04-16 09:09 | 50.02267 | -14.14075 | 35985 ft | 398 kts | 265° |
| 2026-04-16 09:10 | 50.02068 | -14.22674 | 35982 ft | 397 kts | 265° |
| 2026-04-16 09:10 | 50.01863 | -14.31270 | 35980 ft | 398 kts | 265° |
| 2026-04-16 09:11 | 50.01651 | -14.39871 | 35982 ft | 398 kts | 265° |
| 2026-04-16 09:11 | 50.01433 | -14.48497 | 35981 ft | 399 kts | 265° |
| 2026-04-16 09:12 | 50.01210 | -14.57073 | 35983 ft | 400 kts | 265° |
| 2026-04-16 09:12 | 50.00978 | -14.65728 | 35980 ft | 401 kts | 265° |
| 2026-04-16 09:13 | 50.00740 | -14.74392 | 35992 ft | 402 kts | 265° |
| 2026-04-16 09:13 | 50.00496 | -14.83090 | 35991 ft | 403 kts | 265° |
| 2026-04-16 09:14 | 50.00245 | -14.91792 | 35987 ft | 403 kts | 265° |
| 2026-04-16 09:14 | 49.99960 | -15.00509 | 35986 ft | 402 kts | 262° |
| 2026-04-16 09:15 | 49.99314 | -15.09124 | 35992 ft | 401 kts | 261° |
| 2026-04-16 09:15 | 49.98621 | -15.17725 | 35996 ft | 400 kts | 261° |
| 2026-04-16 09:16 | 49.97927 | -15.26305 | 35989 ft | 400 kts | 261° |
| 2026-04-16 09:16 | 49.97235 | -15.34886 | 35980 ft | 400 kts | 260° |
| 2026-04-16 09:17 | 49.96545 | -15.43393 | 35981 ft | 399 kts | 260° |
| 2026-04-16 09:17 | 49.95846 | -15.51939 | 35984 ft | 398 kts | 260° |
| 2026-04-16 09:18 | 49.95140 | -15.60485 | 35981 ft | 398 kts | 260° |
| 2026-04-16 09:18 | 49.94430 | -15.69007 | 35981 ft | 398 kts | 260° |